Time;durP1;ratioP1;P1;durP2;ratioP2;P2;SDS_P1;SDS_P2;PMS_P1;PMS_P2;Temp;Humidity;BMP_temperature;BMP_pressure;BME280_temperature;BME280_humidity;BME280_pressure;Samples;Min_cycle;Max_cycle;Signal;HPM_P1;HPM_P2
2022/08/21 00:01:15;;;;;;;;;;;;;;;;;;5041186;28;1906;-71
2022/08/21 00:03:40;;;;;;;;;;;;;;;;;;5041308;28;895;-71
2022/08/21 00:06:05;;;;;;;;;;;;;;;;;;5040970;28;1263;-71
2022/08/21 00:08:31;;;;;;;;;;;;;;;;;;5041267;28;925;-72
2022/08/21 00:10:56;;;;;;;;;;;;;;;;;;5041184;28;890;-72
2022/08/21 00:13:21;;;;;;;;;;;;;;;;;;5041124;28;1000;-72
2022/08/21 00:15:47;;;;;;;;;;;;;;;;;;5040839;28;1176;-72
2022/08/21 00:18:13;;;;;;;;;;;;;;;;;;5040866;28;1545;-72
2022/08/21 00:20:39;;;;;;;;;;;;;;;;;;5041364;28;989;-72
2022/08/21 00:23:04;;;;;;;;;;;;;;;;;;5044370;28;1902;-72
2022/08/21 00:25:30;;;;;;;;;;;;;;;;;;5044262;28;1169;-72
2022/08/21 00:27:55;;;;;;;;;;;;;;;;;;5026725;28;1319;-72
2022/08/21 00:30:21;;;;;;;;;;;;;;;;;;5044696;28;858;-72
2022/08/21 00:32:46;;;;;;;;;;;;;;;;;;5044315;28;1235;-72
2022/08/21 00:35:13;;;;;;;;;;;;;;;;;;5044250;28;1199;-72
2022/08/21 00:37:39;;;;;;;;;;;;;;;;;;5044495;28;1079;-71
2022/08/21 00:40:05;;;;;;;;;;;;;;;;;;5044372;28;1008;-72
2022/08/21 00:42:30;;;;;;;;;;;;;;;;;;5044217;28;1964;-71
2022/08/21 00:44:56;;;;;;;;;;;;;;;;;;5044002;28;1274;-72
2022/08/21 00:47:21;;;;;;;;;;;;;;;;;;5044276;28;807;-72
2022/08/21 00:49:47;;;;;;;;;;;;;;;;;;5044124;28;808;-71
2022/08/21 00:52:14;;;;;;;;;;;;;;;;;;5044195;28;1025;-71
2022/08/21 00:54:40;;;;;;;;;;;;;;;;;;5043712;28;1180;-71
2022/08/21 00:57:09;;;;;;;;;;;;;;;;;;5044130;28;803;-72
2022/08/21 00:59:35;;;;;;;;;;;;;;;;;;5043985;28;937;-72
2022/08/21 01:02:01;;;;;;;;;;;;;;;;;;5043966;28;1965;-72
2022/08/21 01:04:26;;;;;;;;;;;;;;;;;;5043843;28;1282;-72
2022/08/21 01:06:52;;;;;;;;;;;;;;;;;;5043772;28;965;-70
2022/08/21 01:09:18;;;;;;;;;;;;;;;;;;5043838;28;952;-70
2022/08/21 01:11:43;;;;;;;;;;;;;;;;;;5043925;28;894;-70
2022/08/21 01:14:11;;;;;;;;;;;;;;;;;;5043758;28;818;-70
2022/08/21 01:16:37;;;;;;;;;;;;;;;;;;5056837;28;1306;-72
2022/08/21 01:19:03;;;;;;;;;;;;;;;;;;5063876;28;972;-71
2022/08/21 01:21:28;;;;;;;;;;;;;;;;;;5063511;28;1902;-70
2022/08/21 01:23:54;;;;;;;;;;;;;;;;;;5063749;28;937;-72
2022/08/21 01:26:22;;;;;;;;;;;;;;;;;;5063289;28;1274;-72
2022/08/21 01:29:07;;;;;;;;;;;;;;;;;;5063773;28;854;-72
2022/08/21 01:31:32;;;;;;;;;;;;;;;;;;5063392;28;1035;-71
2022/08/21 01:33:58;;;;;;;;;;;;;;;;;;5063567;28;885;-71
2022/08/21 01:36:24;;;;;;;;;;;;;;;;;;5063014;28;1162;-71
2022/08/21 01:38:49;;;;;;;;;;;;;;;;;;5063440;28;1181;-71
2022/08/21 01:41:15;;;;;;;;;;;;;;;;;;5063254;28;1897;-71
2022/08/21 01:43:41;;;;;;;;;;;;;;;;;;5063621;28;803;-71
2022/08/21 01:46:06;;;;;;;;;;;;;;;;;;5062771;28;1301;-71
2022/08/21 01:48:32;;;;;;;;;;;;;;;;;;5063411;28;869;-71
2022/08/21 01:50:57;;;;;;;;;;;;;;;;;;5063183;28;830;-71
2022/08/21 01:53:22;;;;;;;;;;;;;;;;;;5063295;28;1063;-71
2022/08/21 01:55:47;;;;;;;;;;;;;;;;;;5063168;28;1283;-71
2022/08/21 01:58:12;;;;;;;;;;;;;;;;;;5063186;28;910;-71
2022/08/21 02:00:38;;;;;;;;;;;;;;;;;;5063212;28;807;-71
2022/08/21 02:03:03;;;;;;;;;;;;;;;;;;5062950;28;1897;-71
2022/08/21 02:05:28;;;;;;;;;;;;;;;;;;5062690;28;1274;-71
2022/08/21 02:07:53;;;;;;;;;;;;;;;;;;5063009;28;878;-71
2022/08/21 02:10:21;;;;;;;;;;;;;;;;;;5063049;28;818;-71
2022/08/21 02:12:47;;;;;;;;;;;;;;;;;;5062916;28;937;-71
2022/08/21 02:15:12;;;;;;;;;;;;;;;;;;5062713;28;1270;-71
2022/08/21 02:17:42;;;;;;;;;;;;;;;;;;5062682;28;884;-71
2022/08/21 02:20:08;;;;;;;;;;;;;;;;;;5062908;28;937;-71
2022/08/21 02:22:33;;;;;;;;;;;;;;;;;;5062743;28;1964;-71
2022/08/21 02:24:58;;;;;;;;;;;;;;;;;;5062582;28;1255;-71
2022/08/21 02:27:24;;;;;;;;;;;;;;;;;;5062846;28;905;-71
2022/08/21 02:29:50;;;;;;;;;;;;;;;;;;5062624;28;842;-71
2022/08/21 02:32:15;;;;;;;;;;;;;;;;;;5062626;28;830;-71
2022/08/21 02:34:40;;;;;;;;;;;;;;;;;;5062444;28;1214;-71
2022/08/21 02:37:05;;;;;;;;;;;;;;;;;;5062603;28;1025;-71
2022/08/21 02:39:30;;;;;;;;;;;;;;;;;;5062462;28;961;-70
2022/08/21 02:41:55;;;;;;;;;;;;;;;;;;5062457;28;1997;-71
2022/08/21 02:44:21;;;;;;;;;;;;;;;;;;5061754;28;1200;-71
2022/08/21 02:46:46;;;;;;;;;;;;;;;;;;5062134;28;1008;-70
2022/08/21 02:49:11;;;;;;;;;;;;;;;;;;5062297;28;945;-71
2022/08/21 02:51:36;;;;;;;;;;;;;;;;;;5062371;28;814;-70
2022/08/21 02:54:02;;;;;;;;;;;;;;;;;;5062346;28;829;-70
2022/08/21 02:56:27;;;;;;;;;;;;;;;;;;5061971;28;1168;-71
2022/08/21 02:58:52;;;;;;;;;;;;;;;;;;5062298;28;993;-70
2022/08/21 03:01:18;;;;;;;;;;;;;;;;;;5061995;28;1964;-70
2022/08/21 03:03:45;;;;;;;;;;;;;;;;;;5062202;28;914;-70
2022/08/21 03:06:11;;;;;;;;;;;;;;;;;;5061741;28;1132;-70
2022/08/21 03:08:37;;;;;;;;;;;;;;;;;;5062185;28;858;-70
2022/08/21 03:11:02;;;;;;;;;;;;;;;;;;5061912;28;897;-70
2022/08/21 03:13:28;;;;;;;;;;;;;;;;;;5062162;28;1044;-70
2022/08/21 03:15:53;;;;;;;;;;;;;;;;;;5061449;28;1265;-70
2022/08/21 03:18:19;;;;;;;;;;;;;;;;;;5062090;28;961;-70
2022/08/21 03:20:47;;;;;;;;;;;;;;;;;;5061692;28;818;-70
2022/08/21 03:23:13;;;;;;;;;;;;;;;;;;5061909;28;1957;-70
2022/08/21 03:25:38;;;;;;;;;;;;;;;;;;5061354;28;1196;-70
2022/08/21 03:28:05;;;;;;;;;;;;;;;;;;5061859;28;1008;-70
2022/08/21 03:30:33;;;;;;;;;;;;;;;;;;5061581;28;1059;-70
2022/08/21 03:32:58;;;;;;;;;;;;;;;;;;5061710;28;955;-70
2022/08/21 03:35:24;;;;;;;;;;;;;;;;;;5061518;28;1195;-70
2022/08/21 03:37:49;;;;;;;;;;;;;;;;;;5061506;28;1060;-70
2022/08/21 03:40:15;;;;;;;;;;;;;;;;;;5061645;28;927;-70
2022/08/21 03:42:41;;;;;;;;;;;;;;;;;;5061579;28;1898;-70
2022/08/21 03:45:06;;;;;;;;;;;;;;;;;;5061241;28;1196;-70
2022/08/21 03:47:32;;;;;;;;;;;;;;;;;;5061510;28;799;-70
2022/08/21 03:49:57;;;;;;;;;;;;;;;;;;5061752;28;815;-70
2022/08/21 03:52:22;;;;;;;;;;;;;;;;;;5043353;28;1250;-70
2022/08/21 03:54:48;;;;;;;;;;;;;;;;;;5061012;28;1176;-71
2022/08/21 03:57:13;;;;;;;;;;;;;;;;;;5060319;28;948;-71
2022/08/21 03:59:39;;;;;;;;;;;;;;;;;;5061323;28;1056;-71
2022/08/21 04:02:05;;;;;;;;;;;;;;;;;;5061147;28;1957;-71
2022/08/21 04:04:30;;;;;;;;;;;;;;;;;;5061028;28;1255;-71
2022/08/21 04:06:56;;;;;;;;;;;;;;;;;;5061125;28;1052;-71
2022/08/21 04:09:22;;;;;;;;;;;;;;;;;;5061142;28;913;-71
2022/08/21 04:11:47;;;;;;;;;;;;;;;;;;5061263;28;831;-71
2022/08/21 04:14:14;;;;;;;;;;;;;;;;;;5060949;28;1188;-71
2022/08/21 04:16:39;;;;;;;;;;;;;;;;;;5060841;28;858;-71
2022/08/21 04:19:04;;;;;;;;;;;;;;;;;;5061059;28;839;-70
2022/08/21 04:21:30;;;;;;;;;;;;;;;;;;5061005;28;1963;-71
2022/08/21 04:23:55;;;;;;;;;;;;;;;;;;5061010;28;933;-70
2022/08/21 04:26:21;;;;;;;;;;;;;;;;;;5060807;28;1318;-71
2022/08/21 04:28:46;;;;;;;;;;;;;;;;;;5060774;28;922;-71
2022/08/21 04:31:11;;;;;;;;;;;;;;;;;;5061123;28;842;-71
2022/08/21 04:33:36;;;;;;;;;;;;;;;;;;5060931;28;802;-71
2022/08/21 04:36:02;;;;;;;;;;;;;;;;;;5060678;28;1187;-71
2022/08/21 04:38:27;;;;;;;;;;;;;;;;;;5060795;28;870;-70
2022/08/21 04:40:52;;;;;;;;;;;;;;;;;;5060711;28;910;-71
2022/08/21 04:43:19;;;;;;;;;;;;;;;;;;5060829;28;1901;-71
2022/08/21 04:45:47;;;;;;;;;;;;;;;;;;5060249;28;1148;-71
2022/08/21 04:48:14;;;;;;;;;;;;;;;;;;5060734;28;901;-71
2022/08/21 04:50:59;;;;;;;;;;;;;;;;;;5060610;28;901;-71
2022/08/21 04:53:33;;;;;;;;;;;;;;;;;;5060425;28;1158;-71
2022/08/21 04:56:01;;;;;;;;;;;;;;;;;;5060347;28;1274;-70
2022/08/21 04:58:27;;;;;;;;;;;;;;;;;;5060578;28;961;-71
2022/08/21 05:00:53;;;;;;;;;;;;;;;;;;5060691;28;821;-71
2022/08/21 05:03:18;;;;;;;;;;;;;;;;;;5060588;28;1965;-71
2022/08/21 05:05:43;;;;;;;;;;;;;;;;;;5060052;28;1279;-71
2022/08/21 05:08:12;;;;;;;;;;;;;;;;;;5063042;28;926;-71
2022/08/21 05:10:38;;;;;;;;;;;;;;;;;;5064088;28;795;-71
2022/08/21 05:13:04;;;;;;;;;;;;;;;;;;5046014;28;949;-71
2022/08/21 05:15:30;;;;;;;;;;;;;;;;;;5063669;28;1263;-71
2022/08/21 05:17:55;;;;;;;;;;;;;;;;;;5063777;28;857;-72
2022/08/21 05:20:21;;;;;;;;;;;;;;;;;;5063891;28;889;-72
2022/08/21 05:22:46;;;;;;;;;;;;;;;;;;5063623;28;1955;-72
2022/08/21 05:25:12;;;;;;;;;;;;;;;;;;5063522;28;1208;-71
2022/08/21 05:27:38;;;;;;;;;;;;;;;;;;5045746;28;1192;-72
2022/08/21 05:30:03;;;;;;;;;;;;;;;;;;5063874;28;914;-72
2022/08/21 05:32:29;;;;;;;;;;;;;;;;;;5063493;28;910;-72
2022/08/21 05:34:54;;;;;;;;;;;;;;;;;;5063432;28;1184;-72
2022/08/21 05:37:20;;;;;;;;;;;;;;;;;;5063359;28;815;-72
2022/08/21 05:39:45;;;;;;;;;;;;;;;;;;5063465;28;935;-71
2022/08/21 05:42:10;;;;;;;;;;;;;;;;;;5045429;28;1967;-70
2022/08/21 05:44:35;;;;;;;;;;;;;;;;;;5063281;28;1227;-70
2022/08/21 05:47:08;;;;;;;;;;;;;;;;;;5063470;28;886;-71
2022/08/21 05:49:33;;;;;;;;;;;;;;;;;;5063325;28;898;-70
2022/08/21 05:51:58;;;;;;;;;;;;;;;;;;5063353;28;934;-71
2022/08/21 05:54:24;;;;;;;;;;;;;;;;;;5062955;28;1157;-71
2022/08/21 05:56:49;;;;;;;;;;;;;;;;;;5063152;28;877;-71
2022/08/21 05:59:14;;;;;;;;;;;;;;;;;;5063195;28;905;-71
2022/08/21 06:01:40;;;;;;;;;;;;;;;;;;5063108;28;1893;-72
2022/08/21 06:04:05;;;;;;;;;;;;;;;;;;5063103;28;885;-71
2022/08/21 06:06:30;;;;;;;;;;;;;;;;;;5062817;28;1184;-72
2022/08/21 06:08:56;;;;;;;;;;;;;;;;;;5063002;28;802;-72
2022/08/21 06:11:21;;;;;;;;;;;;;;;;;;5063026;28;1048;-72
2022/08/21 06:13:46;;;;;;;;;;;;;;;;;;5062907;28;890;-72
2022/08/21 06:16:13;;;;;;;;;;;;;;;;;;5062782;28;1262;-72
2022/08/21 06:18:38;;;;;;;;;;;;;;;;;;5044111;28;1422;-72
2022/08/21 06:21:04;;;;;;;;;;;;;;;;;;5062688;28;1969;-73
2022/08/21 06:23:29;;;;;;;;;;;;;;;;;;5062859;28;992;-73
2022/08/21 06:25:55;;;;;;;;;;;;;;;;;;5062465;28;1262;-73
2022/08/21 06:28:20;;;;;;;;;;;;;;;;;;5062728;28;1149;-73
2022/08/21 06:30:45;;;;;;;;;;;;;;;;;;5062650;28;850;-73
2022/08/21 06:33:10;;;;;;;;;;;;;;;;;;5062753;28;878;-73
2022/08/21 06:35:36;;;;;;;;;;;;;;;;;;5062357;28;1179;-73
2022/08/21 06:38:01;;;;;;;;;;;;;;;;;;5062554;28;882;-73
2022/08/21 06:40:27;;;;;;;;;;;;;;;;;;5044373;28;1258;-73
2022/08/21 06:42:52;;;;;;;;;;;;;;;;;;5062531;28;1882;-73
2022/08/21 06:45:17;;;;;;;;;;;;;;;;;;5062074;28;1294;-73
2022/08/21 06:47:43;;;;;;;;;;;;;;;;;;5062591;28;846;-73
2022/08/21 06:50:08;;;;;;;;;;;;;;;;;;5062405;28;918;-72
2022/08/21 06:52:34;;;;;;;;;;;;;;;;;;5062202;28;950;-73
2022/08/21 06:55:00;;;;;;;;;;;;;;;;;;5062121;28;1180;-73
2022/08/21 06:57:25;;;;;;;;;;;;;;;;;;5062169;28;846;-72
2022/08/21 06:59:50;;;;;;;;;;;;;;;;;;5062366;28;882;-73
2022/08/21 07:02:16;;;;;;;;;;;;;;;;;;5062043;28;1898;-73
2022/08/21 07:04:41;;;;;;;;;;;;;;;;;;5062018;28;1282;-74
2022/08/21 07:07:06;;;;;;;;;;;;;;;;;;5062139;28;834;-73
2022/08/21 07:09:32;;;;;;;;;;;;;;;;;;5062238;28;1103;-73
2022/08/21 07:11:57;;;;;;;;;;;;;;;;;;5062249;28;838;-72
2022/08/21 07:14:23;;;;;;;;;;;;;;;;;;5067178;28;1270;-71
2022/08/21 07:16:49;;;;;;;;;;;;;;;;;;5068280;28;862;-73
2022/08/21 07:19:14;;;;;;;;;;;;;;;;;;5068542;28;977;-74
2022/08/21 07:21:40;;;;;;;;;;;;;;;;;;5068920;28;1870;-74
2022/08/21 07:24:05;;;;;;;;;;;;;;;;;;5068496;28;906;-74
2022/08/21 07:26:30;;;;;;;;;;;;;;;;;;5068805;28;1168;-74
2022/08/21 07:28:55;;;;;;;;;;;;;;;;;;5068662;28;953;-74
2022/08/21 07:31:22;;;;;;;;;;;;;;;;;;5068697;28;846;-74
2022/08/21 07:33:47;;;;;;;;;;;;;;;;;;5068411;28;870;-73
2022/08/21 07:36:13;;;;;;;;;;;;;;;;;;5067116;28;1203;-74
2022/08/21 07:38:38;;;;;;;;;;;;;;;;;;5065032;28;870;-74
2022/08/21 07:41:10;;;;;;;;;;;;;;;;;;5062183;28;865;-74
2022/08/21 07:43:36;;;;;;;;;;;;;;;;;;5061503;28;905;-71
2022/08/21 07:46:01;;;;;;;;;;;;;;;;;;5061240;28;1200;-74
2022/08/21 07:48:27;;;;;;;;;;;;;;;;;;5061468;28;1032;-74
2022/08/21 07:50:52;;;;;;;;;;;;;;;;;;5061545;28;933;-74
2022/08/21 07:53:17;;;;;;;;;;;;;;;;;;5061446;28;889;-74
2022/08/21 07:55:42;;;;;;;;;;;;;;;;;;5043157;28;1592;-74
2022/08/21 07:58:07;;;;;;;;;;;;;;;;;;5043755;28;1471;-74
2022/08/21 08:00:33;;;;;;;;;;;;;;;;;;5060868;28;878;-74
2022/08/21 08:02:58;;;;;;;;;;;;;;;;;;5061268;28;2290;-74
2022/08/21 08:05:25;;;;;;;;;;;;;;;;;;5060886;28;1183;-74
2022/08/21 08:07:50;;;;;;;;;;;;;;;;;;5061404;28;822;-74
2022/08/21 08:10:16;;;;;;;;;;;;;;;;;;5061126;28;798;-74
2022/08/21 08:12:42;;;;;;;;;;;;;;;;;;5061423;28;906;-74
2022/08/21 08:15:08;;;;;;;;;;;;;;;;;;5042795;28;1562;-73
2022/08/21 08:17:34;;;;;;;;;;;;;;;;;;5061206;28;1161;-74
2022/08/21 08:20:00;;;;;;;;;;;;;;;;;;5061052;28;803;-74
2022/08/21 08:22:26;;;;;;;;;;;;;;;;;;5060929;28;1898;-74
2022/08/21 08:24:51;;;;;;;;;;;;;;;;;;5042970;28;1702;-74
2022/08/21 08:27:17;;;;;;;;;;;;;;;;;;5060923;28;889;-74
2022/08/21 08:29:43;;;;;;;;;;;;;;;;;;5061058;28;793;-74
2022/08/21 08:32:08;;;;;;;;;;;;;;;;;;5060912;28;1139;-74
2022/08/21 08:34:34;;;;;;;;;;;;;;;;;;5060562;28;1274;-74
2022/08/21 08:37:00;;;;;;;;;;;;;;;;;;5060689;28;878;-73
2022/08/21 08:39:26;;;;;;;;;;;;;;;;;;5060786;28;911;-74
2022/08/21 08:41:56;;;;;;;;;;;;;;;;;;5061106;28;1890;-74
2022/08/21 08:44:21;;;;;;;;;;;;;;;;;;5064220;28;1216;-74
2022/08/21 08:46:48;;;;;;;;;;;;;;;;;;5064080;28;822;-74
2022/08/21 08:49:23;;;;;;;;;;;;;;;;;;5064242;28;913;-74
2022/08/21 08:52:05;;;;;;;;;;;;;;;;;;5064109;28;989;-74
2022/08/21 08:54:38;;;;;;;;;;;;;;;;;;5064053;28;1171;-74
2022/08/21 08:57:06;;;;;;;;;;;;;;;;;;5064135;28;810;-74
2022/08/21 08:59:42;;;;;;;;;;;;;;;;;;5059488;28;1081;-74
2022/08/21 09:02:10;;;;;;;;;;;;;;;;;;5044002;28;1894;-74
2022/08/21 09:04:35;;;;;;;;;;;;;;;;;;5042580;28;1948;-74
2022/08/21 09:07:13;;;;;;;;;;;;;;;;;;5044212;28;814;-74
2022/08/21 09:09:38;;;;;;;;;;;;;;;;;;5043858;28;873;-74
2022/08/21 09:12:08;;;;;;;;;;;;;;;;;;5044017;28;853;-74
2022/08/21 09:14:53;;;;;;;;;;;;;;;;;;5043517;28;1748;-74
2022/08/21 09:17:27;;;;;;;;;;;;;;;;;;5043844;28;894;-74
2022/08/21 09:20:15;;;;;;;;;;;;;;;;;;5025894;28;1330;-74
2022/08/21 09:22:50;;;;;;;;;;;;;;;;;;5032994;28;1898;-74
2022/08/21 09:25:27;;;;;;;;;;;;;;;;;;5042124;28;1259;-74
2022/08/21 09:27:53;;;;;;;;;;;;;;;;;;5043801;28;810;-74
2022/08/21 09:30:23;;;;;;;;;;;;;;;;;;5043407;28;1214;-74
2022/08/21 09:32:48;;;;;;;;;;;;;;;;;;5044043;28;989;-74
2022/08/21 09:35:15;;;;;;;;;;;;;;;;;;5043096;28;1184;-74
2022/08/21 09:37:49;;;;;;;;;;;;;;;;;;5043635;28;814;-73
2022/08/21 09:40:20;;;;;;;;;;;;;;;;;;5043205;28;890;-74
2022/08/21 09:42:53;;;;;;;;;;;;;;;;;;5043754;28;1951;-73
2022/08/21 09:45:18;;;;;;;;;;;;;;;;;;5043034;28;1276;-73
2022/08/21 09:47:45;;;;;;;;;;;;;;;;;;5043391;28;810;-73
2022/08/21 09:50:15;;;;;;;;;;;;;;;;;;5043079;28;870;-73
2022/08/21 09:52:44;;;;;;;;;;;;;;;;;;5043337;28;827;-73
2022/08/21 09:57:38;;;;;;;;;;;;;;;;;;5041980;28;1184;-73
2022/08/21 09:58:01;;;;;;;;;;;;;;;;;;5043123;28;983;-73
2022/08/21 10:00:31;;;;;;;;;;;;;;;;;;5043296;28;823;-73
2022/08/21 10:03:14;;;;;;;;;;;;;;;;;;5041929;28;1894;-73
2022/08/21 10:05:49;;;;;;;;;;;;;;;;;;5024803;28;1499;-74
2022/08/21 10:08:18;;;;;;;;;;;;;;;;;;5043277;28;806;-74
2022/08/21 10:10:43;;;;;;;;;;;;;;;;;;5042891;28;929;-73
2022/08/21 10:13:13;;;;;;;;;;;;;;;;;;5043343;28;870;-73
2022/08/21 10:15:46;;;;;;;;;;;;;;;;;;5042663;28;1160;-73
2022/08/21 10:18:35;;;;;;;;;;;;;;;;;;5043192;28;997;-73
2022/08/21 10:21:14;;;;;;;;;;;;;;;;;;5042754;28;891;-73
2022/08/21 10:23:40;;;;;;;;;;;;;;;;;;5042926;28;882;-73
2022/08/21 10:26:10;;;;;;;;;;;;;;;;;;5042664;28;1180;-72
2022/08/21 10:28:51;;;;;;;;;;;;;;;;;;5042982;28;1060;-73
2022/08/21 10:31:40;;;;;;;;;;;;;;;;;;5042772;28;806;-72
2022/08/21 10:34:17;;;;;;;;;;;;;;;;;;5042652;28;1159;-73
2022/08/21 10:37:06;;;;;;;;;;;;;;;;;;5042290;28;993;-73
2022/08/21 10:39:41;;;;;;;;;;;;;;;;;;5042589;28;898;-72
2022/08/21 10:42:29;;;;;;;;;;;;;;;;;;5042546;28;1961;-72
2022/08/21 10:44:54;;;;;;;;;;;;;;;;;;5041888;28;1153;-72
2022/08/21 10:47:25;;;;;;;;;;;;;;;;;;5042171;28;1051;-72
2022/08/21 10:49:56;;;;;;;;;;;;;;;;;;5042262;28;995;-72
2022/08/21 10:52:29;;;;;;;;;;;;;;;;;;5042317;28;1167;-72
2022/08/21 10:54:57;;;;;;;;;;;;;;;;;;5042095;28;1184;-72
2022/08/21 10:57:30;;;;;;;;;;;;;;;;;;5042346;28;835;-72
2022/08/21 10:59:59;;;;;;;;;;;;;;;;;;5042218;28;1009;-73
2022/08/21 11:02:31;;;;;;;;;;;;;;;;;;5042147;28;1893;-73
2022/08/21 11:05:03;;;;;;;;;;;;;;;;;;5023521;28;1460;-72
2022/08/21 11:07:37;;;;;;;;;;;;;;;;;;5042265;28;803;-73
2022/08/21 11:10:10;;;;;;;;;;;;;;;;;;5042099;28;918;-73
2022/08/21 11:12:54;;;;;;;;;;;;;;;;;;5042210;28;886;-73
2022/08/21 11:15:19;;;;;;;;;;;;;;;;;;5041973;28;1180;-72
2022/08/21 11:17:49;;;;;;;;;;;;;;;;;;5042133;28;830;-72
2022/08/21 11:20:36;;;;;;;;;;;;;;;;;;5041791;28;964;-72
2022/08/21 11:23:04;;;;;;;;;;;;;;;;;;5024161;28;1894;-72
2022/08/21 11:25:29;;;;;;;;;;;;;;;;;;5041443;28;1270;-72
2022/08/21 11:27:54;;;;;;;;;;;;;;;;;;5042206;28;815;-73
2022/08/21 11:30:20;;;;;;;;;;;;;;;;;;5041567;28;893;-73
2022/08/21 11:32:45;;;;;;;;;;;;;;;;;;5041825;28;949;-72
2022/08/21 11:35:10;;;;;;;;;;;;;;;;;;5041328;28;1180;-73
2022/08/21 11:37:38;;;;;;;;;;;;;;;;;;5041801;28;958;-72
2022/08/21 11:40:08;;;;;;;;;;;;;;;;;;5041497;28;931;-73
2022/08/21 11:43:00;;;;;;;;;;;;;;;;;;5041586;28;1967;-72
2022/08/21 11:45:31;;;;;;;;;;;;;;;;;;5037266;28;1306;-73
2022/08/21 11:48:08;;;;;;;;;;;;;;;;;;5041642;28;906;-73
2022/08/21 11:50:35;;;;;;;;;;;;;;;;;;5041367;28;1012;-72
2022/08/21 11:53:04;;;;;;;;;;;;;;;;;;5041601;28;823;-73
2022/08/21 11:55:36;;;;;;;;;;;;;;;;;;5040991;28;1276;-70
2022/08/21 11:58:06;;;;;;;;;;;;;;;;;;5041622;28;811;-73
2022/08/21 12:00:38;;;;;;;;;;;;;;;;;;5041360;28;819;-73
2022/08/21 12:03:09;;;;;;;;;;;;;;;;;;5041157;28;1910;-73
2022/08/21 12:05:42;;;;;;;;;;;;;;;;;;5040980;28;1188;-71
2022/08/21 12:08:07;;;;;;;;;;;;;;;;;;5041283;28;906;-71
2022/08/21 12:10:34;;;;;;;;;;;;;;;;;;5041376;28;885;-71
2022/08/21 12:13:12;;;;;;;;;;;;;;;;;;5041155;28;886;-73
2022/08/21 12:15:37;;;;;;;;;;;;;;;;;;5040852;28;1181;-73
2022/08/21 12:18:22;;;;;;;;;;;;;;;;;;5040023;28;1060;-71
2022/08/21 12:20:56;;;;;;;;;;;;;;;;;;5041197;28;831;-70
2022/08/21 12:23:27;;;;;;;;;;;;;;;;;;5040939;28;1887;-70
2022/08/21 12:26:16;;;;;;;;;;;;;;;;;;5040714;28;1252;-70
2022/08/21 12:28:41;;;;;;;;;;;;;;;;;;5041041;28;881;-73
2022/08/21 12:31:20;;;;;;;;;;;;;;;;;;5041015;28;870;-70
2022/08/21 12:33:50;;;;;;;;;;;;;;;;;;5039611;28;1364;-70
2022/08/21 12:36:21;;;;;;;;;;;;;;;;;;5040609;28;1264;-73
2022/08/21 12:38:58;;;;;;;;;;;;;;;;;;5040745;28;831;-70
2022/08/21 12:42:02;;;;;;;;;;;;;;;;;;5023164;28;1906;-73
2022/08/21 12:44:38;;;;;;;;;;;;;;;;;;4959764;28;1196;-70
2022/08/21 12:47:05;;;;;;;;;;;;;;;;;;4960144;28;867;-73
2022/08/21 12:49:34;;;;;;;;;;;;;;;;;;5003610;28;1366;-73
2022/08/21 12:52:06;;;;;;;;;;;;;;;;;;5040835;28;913;-73
2022/08/21 12:54:37;;;;;;;;;;;;;;;;;;5040334;28;1117;-73
2022/08/21 12:57:04;;;;;;;;;;;;;;;;;;5040606;28;1212;-70
2022/08/21 12:59:29;;;;;;;;;;;;;;;;;;5040447;28;819;-70
2022/08/21 13:01:56;;;;;;;;;;;;;;;;;;5039208;28;1957;-70
2022/08/21 13:04:24;;;;;;;;;;;;;;;;;;5040115;28;1166;-70
2022/08/21 13:06:51;;;;;;;;;;;;;;;;;;5040390;28;1024;-73
2022/08/21 13:09:18;;;;;;;;;;;;;;;;;;5039121;28;1179;-70
2022/08/21 13:11:46;;;;;;;;;;;;;;;;;;5040478;28;1056;-70
2022/08/21 13:14:20;;;;;;;;;;;;;;;;;;5040446;28;881;-73
2022/08/21 13:16:46;;;;;;;;;;;;;;;;;;5040333;28;818;-70
2022/08/21 13:19:17;;;;;;;;;;;;;;;;;;5040630;28;1064;-71
2022/08/21 13:21:42;;;;;;;;;;;;;;;;;;5040210;28;1915;-70
2022/08/21 13:24:19;;;;;;;;;;;;;;;;;;5040473;28;851;-73
2022/08/21 13:26:44;;;;;;;;;;;;;;;;;;5039996;28;854;-73
2022/08/21 13:29:11;;;;;;;;;;;;;;;;;;5042730;28;850;-73
2022/08/21 13:31:37;;;;;;;;;;;;;;;;;;5042158;28;1599;-70
2022/08/21 13:34:03;;;;;;;;;;;;;;;;;;5043682;28;890;-71
2022/08/21 13:36:32;;;;;;;;;;;;;;;;;;5043006;28;1192;-71
2022/08/21 13:38:59;;;;;;;;;;;;;;;;;;5043460;28;935;-71
2022/08/21 13:41:27;;;;;;;;;;;;;;;;;;5043283;28;1910;-71
2022/08/21 13:44:03;;;;;;;;;;;;;;;;;;5042253;28;1295;-71
2022/08/21 13:46:33;;;;;;;;;;;;;;;;;;5042759;28;1256;-71
2022/08/21 13:48:59;;;;;;;;;;;;;;;;;;5043538;28;910;-71
2022/08/21 13:51:24;;;;;;;;;;;;;;;;;;5043193;28;969;-71
2022/08/21 13:53:52;;;;;;;;;;;;;;;;;;5043413;28;830;-71
2022/08/21 13:56:25;;;;;;;;;;;;;;;;;;5042708;28;1184;-71
2022/08/21 13:58:51;;;;;;;;;;;;;;;;;;5043540;28;847;-71
2022/08/21 14:01:27;;;;;;;;;;;;;;;;;;5043152;28;1084;-71
2022/08/21 14:03:54;;;;;;;;;;;;;;;;;;5042994;28;1167;-71
2022/08/21 14:06:23;;;;;;;;;;;;;;;;;;5042699;28;1184;-71
2022/08/21 14:08:57;;;;;;;;;;;;;;;;;;5042992;28;799;-71
2022/08/21 14:11:23;;;;;;;;;;;;;;;;;;5042993;28;848;-70
2022/08/21 14:13:51;;;;;;;;;;;;;;;;;;5042894;28;874;-71
2022/08/21 14:16:20;;;;;;;;;;;;;;;;;;5042494;28;1199;-71
2022/08/21 14:18:53;;;;;;;;;;;;;;;;;;5025114;28;870;-71
2022/08/21 14:21:28;;;;;;;;;;;;;;;;;;5042909;28;795;-71
2022/08/21 14:24:02;;;;;;;;;;;;;;;;;;5042782;28;756;-71
2022/08/21 14:26:28;;;;;;;;;;;;;;;;;;5042545;28;1112;-71
2022/08/21 14:28:58;;;;;;;;;;;;;;;;;;5042605;28;878;-71
2022/08/21 14:31:28;;;;;;;;;;;;;;;;;;5042704;28;803;-71
2022/08/21 14:33:54;;;;;;;;;;;;;;;;;;5042610;28;957;-71
2022/08/21 14:36:19;;;;;;;;;;;;;;;;;;5042282;28;1157;-71
2022/08/21 14:38:44;;;;;;;;;;;;;;;;;;5042462;28;819;-71
2022/08/21 14:41:17;;;;;;;;;;;;;;;;;;5041894;28;1005;-71
2022/08/21 14:43:43;;;;;;;;;;;;;;;;;;5042317;28;1960;-71
2022/08/21 14:46:09;;;;;;;;;;;;;;;;;;5042144;28;1204;-71
2022/08/21 14:48:34;;;;;;;;;;;;;;;;;;5042521;28;831;-70
2022/08/21 14:50:59;;;;;;;;;;;;;;;;;;5042395;28;858;-70
2022/08/21 14:53:24;;;;;;;;;;;;;;;;;;5024630;28;1520;-71
2022/08/21 14:56:04;;;;;;;;;;;;;;;;;;5041843;28;1201;-71
2022/08/21 14:58:30;;;;;;;;;;;;;;;;;;5024447;28;1276;-71
2022/08/21 15:00:56;;;;;;;;;;;;;;;;;;5042131;28;898;-71
2022/08/21 15:03:21;;;;;;;;;;;;;;;;;;5042376;28;1893;-71
2022/08/21 15:05:47;;;;;;;;;;;;;;;;;;5041705;28;1282;-71
2022/08/21 15:08:12;;;;;;;;;;;;;;;;;;5042336;28;799;-71
2022/08/21 15:10:37;;;;;;;;;;;;;;;;;;5042024;28;877;-71
2022/08/21 15:13:03;;;;;;;;;;;;;;;;;;5042158;28;834;-71
2022/08/21 15:15:34;;;;;;;;;;;;;;;;;;5041633;28;1198;-71
2022/08/21 15:17:59;;;;;;;;;;;;;;;;;;5042157;28;839;-71
2022/08/21 15:20:24;;;;;;;;;;;;;;;;;;5042013;28;941;-71
2022/08/21 15:22:49;;;;;;;;;;;;;;;;;;5042035;28;1867;-71
2022/08/21 15:25:14;;;;;;;;;;;;;;;;;;5041679;28;1290;-71
2022/08/21 15:27:40;;;;;;;;;;;;;;;;;;5041704;28;937;-71
2022/08/21 15:30:05;;;;;;;;;;;;;;;;;;5024316;28;1384;-71
2022/08/21 15:32:31;;;;;;;;;;;;;;;;;;5041705;28;850;-71
2022/08/21 15:34:56;;;;;;;;;;;;;;;;;;5041564;28;1180;-71
2022/08/21 15:37:22;;;;;;;;;;;;;;;;;;5041488;28;862;-71
2022/08/21 15:39:48;;;;;;;;;;;;;;;;;;5041597;28;819;-71
2022/08/21 15:42:13;;;;;;;;;;;;;;;;;;5023544;28;1894;-71
2022/08/21 15:44:39;;;;;;;;;;;;;;;;;;5041475;28;1295;-71
2022/08/21 15:47:05;;;;;;;;;;;;;;;;;;5041378;28;811;-71
2022/08/21 15:49:30;;;;;;;;;;;;;;;;;;5041596;28;1198;-71
2022/08/21 15:51:55;;;;;;;;;;;;;;;;;;5041314;28;1057;-71
2022/08/21 15:54:20;;;;;;;;;;;;;;;;;;5041317;28;1275;-71
2022/08/21 15:56:48;;;;;;;;;;;;;;;;;;5023430;28;1070;-71
2022/08/21 15:59:15;;;;;;;;;;;;;;;;;;5041248;28;870;-71
2022/08/21 16:01:40;;;;;;;;;;;;;;;;;;5039804;28;1893;-71
2022/08/21 16:04:06;;;;;;;;;;;;;;;;;;5041237;28;1013;-71
2022/08/21 16:06:31;;;;;;;;;;;;;;;;;;5040938;28;1268;-71
2022/08/21 16:08:56;;;;;;;;;;;;;;;;;;5041322;28;831;-71
2022/08/21 16:11:22;;;;;;;;;;;;;;;;;;5041313;28;878;-71
2022/08/21 16:13:47;;;;;;;;;;;;;;;;;;5041209;28;926;-71
2022/08/21 16:16:15;;;;;;;;;;;;;;;;;;5040935;28;1188;-71
2022/08/21 16:18:40;;;;;;;;;;;;;;;;;;5041785;28;946;-71
2022/08/21 16:21:06;;;;;;;;;;;;;;;;;;5028089;28;1111;-71
2022/08/21 16:23:32;;;;;;;;;;;;;;;;;;5040855;28;1968;-71
2022/08/21 16:25:58;;;;;;;;;;;;;;;;;;5040808;28;1279;-71
2022/08/21 16:28:23;;;;;;;;;;;;;;;;;;5041177;28;792;-71
2022/08/21 16:30:49;;;;;;;;;;;;;;;;;;5041011;28;989;-71
2022/08/21 16:33:33;;;;;;;;;;;;;;;;;;5041043;28;894;-71
2022/08/21 16:35:59;;;;;;;;;;;;;;;;;;5040602;28;1260;-71
2022/08/21 16:38:24;;;;;;;;;;;;;;;;;;5040928;28;915;-71
2022/08/21 16:40:50;;;;;;;;;;;;;;;;;;5040982;28;796;-71
2022/08/21 16:43:15;;;;;;;;;;;;;;;;;;5040848;28;1902;-71
2022/08/21 16:45:41;;;;;;;;;;;;;;;;;;5040424;28;1129;-71
2022/08/21 16:48:08;;;;;;;;;;;;;;;;;;5040935;28;910;-71
2022/08/21 16:50:34;;;;;;;;;;;;;;;;;;5040518;28;842;-71
2022/08/21 16:52:59;;;;;;;;;;;;;;;;;;5040822;28;961;-71
2022/08/21 16:55:24;;;;;;;;;;;;;;;;;;5040290;28;1261;-71
2022/08/21 16:57:49;;;;;;;;;;;;;;;;;;5040674;28;807;-71
2022/08/21 17:00:15;;;;;;;;;;;;;;;;;;5040632;28;873;-71
2022/08/21 17:02:45;;;;;;;;;;;;;;;;;;5040851;28;1956;-71
2022/08/21 17:05:11;;;;;;;;;;;;;;;;;;5043806;28;1263;-71
2022/08/21 17:07:36;;;;;;;;;;;;;;;;;;5043968;28;883;-71
2022/08/21 17:10:02;;;;;;;;;;;;;;;;;;5044070;28;815;-71
2022/08/21 17:12:27;;;;;;;;;;;;;;;;;;5043897;28;823;-71
2022/08/21 17:14:53;;;;;;;;;;;;;;;;;;5043769;28;1180;-71
2022/08/21 17:17:18;;;;;;;;;;;;;;;;;;5043591;28;1000;-71